sensor_id;sensor_type;location;lat;lon;timestamp;pressure;altitude;pressure_sealevel;temperature;humidity
5753;BME280;2901;42.140;24.760;2023-02-12T00:01:43;100500.03;;;1.92;50.53
5753;BME280;2901;42.140;24.760;2023-02-12T00:04:08;100494.13;;;1.93;49.98
5753;BME280;2901;42.140;24.760;2023-02-12T00:06:34;100493.44;;;1.97;50.60
5753;BME280;2901;42.140;24.760;2023-02-12T00:08:59;100489.00;;;1.93;51.00
5753;BME280;2901;42.140;24.760;2023-02-12T00:11:28;100489.41;;;1.83;51.68
5753;BME280;2901;42.140;24.760;2023-02-12T00:13:55;100487.53;;;1.79;51.89
5753;BME280;2901;42.140;24.760;2023-02-12T00:16:27;100485.72;;;1.77;51.94
5753;BME280;2901;42.140;24.760;2023-02-12T00:18:54;100476.25;;;1.74;51.68
5753;BME280;2901;42.140;24.760;2023-02-12T00:21:21;100479.47;;;1.70;51.84
5753;BME280;2901;42.140;24.760;2023-02-12T00:23:46;100483.81;;;1.73;51.06
5753;BME280;2901;42.140;24.760;2023-02-12T00:26:14;100483.50;;;1.84;49.43
5753;BME280;2901;42.140;24.760;2023-02-12T00:28:40;100475.16;;;1.88;49.45
5753;BME280;2901;42.140;24.760;2023-02-12T00:31:07;100473.72;;;1.95;48.40
5753;BME280;2901;42.140;24.760;2023-02-12T00:33:33;100451.56;;;1.94;48.00
5753;BME280;2901;42.140;24.760;2023-02-12T00:35:58;100450.53;;;2.09;47.82
5753;BME280;2901;42.140;24.760;2023-02-12T00:38:24;100457.53;;;2.14;48.13
5753;BME280;2901;42.140;24.760;2023-02-12T00:40:50;100450.78;;;2.16;47.28
5753;BME280;2901;42.140;24.760;2023-02-12T00:43:15;100444.88;;;2.17;47.17
5753;BME280;2901;42.140;24.760;2023-02-12T00:45:40;100437.22;;;2.17;47.17
5753;BME280;2901;42.140;24.760;2023-02-12T00:48:06;100440.94;;;2.25;46.80
5753;BME280;2901;42.140;24.760;2023-02-12T00:50:31;100428.94;;;2.22;46.97
5753;BME280;2901;42.140;24.760;2023-02-12T00:52:57;100422.50;;;2.32;46.60
5753;BME280;2901;42.140;24.760;2023-02-12T00:55:22;100428.63;;;2.35;46.35
5753;BME280;2901;42.140;24.760;2023-02-12T00:57:47;100426.16;;;2.37;46.38
5753;BME280;2901;42.140;24.760;2023-02-12T01:00:14;100422.88;;;2.41;46.50
5753;BME280;2901;42.140;24.760;2023-02-12T01:02:39;100410.22;;;2.44;46.05
5753;BME280;2901;42.140;24.760;2023-02-12T01:05:05;100416.28;;;2.46;45.40
5753;BME280;2901;42.140;24.760;2023-02-12T01:07:30;100408.78;;;2.50;44.27
5753;BME280;2901;42.140;24.760;2023-02-12T01:09:56;100417.00;;;2.64;44.22
5753;BME280;2901;42.140;24.760;2023-02-12T01:12:21;100404.47;;;2.70;43.94
5753;BME280;2901;42.140;24.760;2023-02-12T01:14:46;100404.78;;;2.78;43.04
5753;BME280;2901;42.140;24.760;2023-02-12T01:17:12;100406.06;;;2.89;42.44
5753;BME280;2901;42.140;24.760;2023-02-12T01:19:37;100405.59;;;2.99;42.35
5753;BME280;2901;42.140;24.760;2023-02-12T01:22:03;100413.44;;;3.03;41.82
5753;BME280;2901;42.140;24.760;2023-02-12T01:24:28;100401.47;;;3.02;42.16
5753;BME280;2901;42.140;24.760;2023-02-12T01:26:54;100403.09;;;3.00;42.14
5753;BME280;2901;42.140;24.760;2023-02-12T01:29:19;100415.16;;;3.03;42.12
5753;BME280;2901;42.140;24.760;2023-02-12T01:31:44;100406.50;;;2.99;42.28
5753;BME280;2901;42.140;24.760;2023-02-12T01:34:10;100392.63;;;2.94;42.82
5753;BME280;2901;42.140;24.760;2023-02-12T01:36:36;100398.56;;;2.93;43.12
5753;BME280;2901;42.140;24.760;2023-02-12T01:39:03;100387.63;;;2.97;42.45
5753;BME280;2901;42.140;24.760;2023-02-12T01:41:34;100387.59;;;2.96;42.61
5753;BME280;2901;42.140;24.760;2023-02-12T01:46:35;100372.41;;;3.00;42.18
5753;BME280;2901;42.140;24.760;2023-02-12T01:49:02;100391.34;;;3.28;41.54
5753;BME280;2901;42.140;24.760;2023-02-12T01:51:29;100378.75;;;3.34;41.50
5753;BME280;2901;42.140;24.760;2023-02-12T01:53:58;100382.25;;;3.36;41.29
5753;BME280;2901;42.140;24.760;2023-02-12T01:56:26;100370.28;;;3.35;40.55
5753;BME280;2901;42.140;24.760;2023-02-12T01:58:53;100382.81;;;3.51;40.22
5753;BME280;2901;42.140;24.760;2023-02-12T02:01:23;100379.47;;;3.53;40.22
5753;BME280;2901;42.140;24.760;2023-02-12T02:03:53;100372.88;;;3.60;39.67
5753;BME280;2901;42.140;24.760;2023-02-12T02:06:24;100373.81;;;3.62;39.77
5753;BME280;2901;42.140;24.760;2023-02-12T02:08:55;100370.31;;;3.60;39.99
5753;BME280;2901;42.140;24.760;2023-02-12T02:11:21;100377.03;;;3.56;39.60
5753;BME280;2901;42.140;24.760;2023-02-12T02:14:05;100374.31;;;3.52;39.80
5753;BME280;2901;42.140;24.760;2023-02-12T02:16:58;100379.19;;;3.46;39.41
5753;BME280;2901;42.140;24.760;2023-02-12T02:27:44;100393.91;;;3.28;39.03
5753;BME280;2901;42.140;24.760;2023-02-12T02:30:33;100394.69;;;3.27;39.11
5753;BME280;2901;42.140;24.760;2023-02-12T02:36:22;100394.56;;;3.22;39.51
5753;BME280;2901;42.140;24.760;2023-02-12T02:38:47;100397.81;;;3.18;39.61
5753;BME280;2901;42.140;24.760;2023-02-12T02:41:28;100378.91;;;3.14;39.77
5753;BME280;2901;42.140;24.760;2023-02-12T02:43:55;100367.47;;;3.05;40.33
5753;BME280;2901;42.140;24.760;2023-02-12T02:46:43;100391.63;;;3.13;40.32
5753;BME280;2901;42.140;24.760;2023-02-12T02:49:15;100396.94;;;3.18;41.25
5753;BME280;2901;42.140;24.760;2023-02-12T02:51:44;100388.34;;;3.16;41.50
5753;BME280;2901;42.140;24.760;2023-02-12T02:54:18;100397.72;;;3.17;42.02
5753;BME280;2901;42.140;24.760;2023-02-12T02:56:47;100387.97;;;3.29;41.81
5753;BME280;2901;42.140;24.760;2023-02-12T02:59:20;100388.50;;;3.44;42.46
5753;BME280;2901;42.140;24.760;2023-02-12T03:01:55;100385.47;;;3.54;42.33
5753;BME280;2901;42.140;24.760;2023-02-12T03:04:34;100389.72;;;3.53;41.90
5753;BME280;2901;42.140;24.760;2023-02-12T03:07:05;100372.88;;;3.36;41.41
5753;BME280;2901;42.140;24.760;2023-02-12T03:09:37;100387.72;;;3.45;41.87
5753;BME280;2901;42.140;24.760;2023-02-12T03:12:09;100393.63;;;3.44;41.80
5753;BME280;2901;42.140;24.760;2023-02-12T03:14:39;100382.59;;;3.45;41.69
5753;BME280;2901;42.140;24.760;2023-02-12T03:17:20;100382.47;;;3.42;41.55
5753;BME280;2901;42.140;24.760;2023-02-12T03:19:54;100388.47;;;3.42;41.29
5753;BME280;2901;42.140;24.760;2023-02-12T03:22:30;100376.31;;;3.37;41.29
5753;BME280;2901;42.140;24.760;2023-02-12T03:25:19;100392.63;;;3.39;41.57
5753;BME280;2901;42.140;24.760;2023-02-12T03:27:57;100398.34;;;3.33;41.17
5753;BME280;2901;42.140;24.760;2023-02-12T03:30:35;100385.84;;;3.41;41.63
5753;BME280;2901;42.140;24.760;2023-02-12T03:36:00;100390.19;;;3.43;40.99
5753;BME280;2901;42.140;24.760;2023-02-12T03:38:41;100374.84;;;3.43;40.43
5753;BME280;2901;42.140;24.760;2023-02-12T03:41:13;100390.53;;;3.52;40.15
5753;BME280;2901;42.140;24.760;2023-02-12T03:43:48;100391.47;;;3.54;40.33
5753;BME280;2901;42.140;24.760;2023-02-12T03:46:21;100387.44;;;3.61;40.50
5753;BME280;2901;42.140;24.760;2023-02-12T03:51:28;100380.78;;;3.66;40.96
5753;BME280;2901;42.140;24.760;2023-02-12T03:53:56;100388.56;;;3.69;40.97
5753;BME280;2901;42.140;24.760;2023-02-12T03:56:26;100385.19;;;3.70;40.39
5753;BME280;2901;42.140;24.760;2023-02-12T03:58:53;100378.38;;;3.71;40.40
5753;BME280;2901;42.140;24.760;2023-02-12T04:01:18;100381.66;;;3.66;40.33
5753;BME280;2901;42.140;24.760;2023-02-12T04:03:44;100383.44;;;3.69;41.08
5753;BME280;2901;42.140;24.760;2023-02-12T04:06:21;100381.00;;;3.72;41.15
5753;BME280;2901;42.140;24.760;2023-02-12T04:08:47;100385.41;;;3.76;41.52
5753;BME280;2901;42.140;24.760;2023-02-12T04:11:35;100388.91;;;3.78;41.39
5753;BME280;2901;42.140;24.760;2023-02-12T04:31:04;100395.25;;;3.89;40.34
5753;BME280;2901;42.140;24.760;2023-02-12T04:33:43;100396.19;;;3.91;40.01
5753;BME280;2901;42.140;24.760;2023-02-12T04:36:24;100405.97;;;4.03;40.51
5753;BME280;2901;42.140;24.760;2023-02-12T04:38:53;100395.78;;;4.04;39.69
5753;BME280;2901;42.140;24.760;2023-02-12T04:41:19;100391.78;;;4.12;39.59
5753;BME280;2901;42.140;24.760;2023-02-12T04:43:45;100384.19;;;4.15;39.49
5753;BME280;2901;42.140;24.760;2023-02-12T04:46:11;100396.19;;;4.16;38.68
5753;BME280;2901;42.140;24.760;2023-02-12T04:48:55;100415.97;;;4.21;38.96
5753;BME280;2901;42.140;24.760;2023-02-12T04:51:22;100404.88;;;4.22;39.23
5753;BME280;2901;42.140;24.760;2023-02-12T04:53:48;100398.84;;;4.19;39.69
5753;BME280;2901;42.140;24.760;2023-02-12T04:56:14;100398.84;;;4.19;39.96
5753;BME280;2901;42.140;24.760;2023-02-12T04:58:40;100418.34;;;4.14;40.63
5753;BME280;2901;42.140;24.760;2023-02-12T05:01:07;100407.16;;;4.12;40.70
5753;BME280;2901;42.140;24.760;2023-02-12T05:03:33;100409.72;;;4.12;40.86
5753;BME280;2901;42.140;24.760;2023-02-12T05:06:06;100415.78;;;4.14;40.71
5753;BME280;2901;42.140;24.760;2023-02-12T05:08:32;100423.31;;;4.10;40.25
5753;BME280;2901;42.140;24.760;2023-02-12T05:11:03;100409.69;;;4.11;40.17
5753;BME280;2901;42.140;24.760;2023-02-12T05:13:28;100408.13;;;4.16;40.55
5753;BME280;2901;42.140;24.760;2023-02-12T05:15:53;100429.50;;;4.16;40.65
5753;BME280;2901;42.140;24.760;2023-02-12T05:18:19;100442.44;;;4.19;40.73
5753;BME280;2901;42.140;24.760;2023-02-12T05:20:44;100437.09;;;4.13;41.01
5753;BME280;2901;42.140;24.760;2023-02-12T05:23:09;100440.63;;;4.17;41.81
5753;BME280;2901;42.140;24.760;2023-02-12T05:25:35;100450.00;;;4.16;41.44
5753;BME280;2901;42.140;24.760;2023-02-12T05:28:00;100448.16;;;4.12;41.49
5753;BME280;2901;42.140;24.760;2023-02-12T05:30:26;100445.88;;;4.20;41.93
5753;BME280;2901;42.140;24.760;2023-02-12T05:32:51;100442.31;;;4.16;42.22
5753;BME280;2901;42.140;24.760;2023-02-12T05:35:17;100442.22;;;4.13;42.55
5753;BME280;2901;42.140;24.760;2023-02-12T05:37:42;100439.66;;;4.13;42.95
5753;BME280;2901;42.140;24.760;2023-02-12T05:40:08;100437.13;;;4.15;43.10
5753;BME280;2901;42.140;24.760;2023-02-12T05:42:33;100435.34;;;4.12;42.74
5753;BME280;2901;42.140;24.760;2023-02-12T05:44:59;100434.63;;;4.16;42.54
5753;BME280;2901;42.140;24.760;2023-02-12T05:47:24;100429.91;;;4.29;42.70
5753;BME280;2901;42.140;24.760;2023-02-12T05:49:50;100446.25;;;4.32;42.39
5753;BME280;2901;42.140;24.760;2023-02-12T05:52:16;100444.75;;;4.37;41.50
5753;BME280;2901;42.140;24.760;2023-02-12T05:54:41;100449.09;;;4.40;41.55
5753;BME280;2901;42.140;24.760;2023-02-12T05:57:07;100444.25;;;4.49;41.58
5753;BME280;2901;42.140;24.760;2023-02-12T05:59:32;100445.34;;;4.55;40.89
5753;BME280;2901;42.140;24.760;2023-02-12T06:01:57;100441.38;;;4.65;41.25
5753;BME280;2901;42.140;24.760;2023-02-12T06:04:25;100461.25;;;4.70;40.91
5753;BME280;2901;42.140;24.760;2023-02-12T06:06:53;100451.19;;;4.78;40.47
5753;BME280;2901;42.140;24.760;2023-02-12T06:09:18;100449.56;;;4.80;40.50
5753;BME280;2901;42.140;24.760;2023-02-12T06:11:44;100449.75;;;4.86;41.15
5753;BME280;2901;42.140;24.760;2023-02-12T06:14:12;100450.56;;;4.85;40.74
5753;BME280;2901;42.140;24.760;2023-02-12T06:16:39;100448.00;;;4.85;41.23
5753;BME280;2901;42.140;24.760;2023-02-12T06:19:04;100461.97;;;4.93;41.68
5753;BME280;2901;42.140;24.760;2023-02-12T06:21:31;100461.22;;;4.97;41.66
5753;BME280;2901;42.140;24.760;2023-02-12T06:23:56;100458.09;;;5.07;41.01
5753;BME280;2901;42.140;24.760;2023-02-12T06:26:23;100456.47;;;5.09;41.72
5753;BME280;2901;42.140;24.760;2023-02-12T06:28:49;100456.59;;;5.14;41.25
5753;BME280;2901;42.140;24.760;2023-02-12T06:31:28;100460.13;;;5.17;41.74
5753;BME280;2901;42.140;24.760;2023-02-12T06:33:58;100460.44;;;5.27;41.72
5753;BME280;2901;42.140;24.760;2023-02-12T06:36:24;100458.88;;;5.32;41.52
5753;BME280;2901;42.140;24.760;2023-02-12T06:38:50;100460.69;;;5.36;41.20
5753;BME280;2901;42.140;24.760;2023-02-12T06:41:16;100461.03;;;5.46;41.44
5753;BME280;2901;42.140;24.760;2023-02-12T06:43:42;100461.78;;;5.44;41.63
5753;BME280;2901;42.140;24.760;2023-02-12T06:46:08;100449.88;;;5.46;41.26
5753;BME280;2901;42.140;24.760;2023-02-12T06:48:33;100462.25;;;5.59;41.34
5753;BME280;2901;42.140;24.760;2023-02-12T06:51:12;100457.28;;;5.65;41.17
5753;BME280;2901;42.140;24.760;2023-02-12T06:53:38;100472.94;;;5.74;41.47
5753;BME280;2901;42.140;24.760;2023-02-12T06:56:05;100479.19;;;5.82;41.19
5753;BME280;2901;42.140;24.760;2023-02-12T06:58:31;100481.16;;;5.91;41.57
5753;BME280;2901;42.140;24.760;2023-02-12T07:01:06;100475.06;;;5.87;41.73
5753;BME280;2901;42.140;24.760;2023-02-12T07:03:32;100491.63;;;5.97;41.96
5753;BME280;2901;42.140;24.760;2023-02-12T07:05:57;100478.75;;;5.97;41.64
5753;BME280;2901;42.140;24.760;2023-02-12T07:08:22;100488.97;;;5.94;42.47
5753;BME280;2901;42.140;24.760;2023-02-12T07:10:48;100497.56;;;5.94;42.67
5753;BME280;2901;42.140;24.760;2023-02-12T07:13:14;100484.66;;;5.93;42.91
5753;BME280;2901;42.140;24.760;2023-02-12T07:15:39;100489.66;;;5.88;44.22
5753;BME280;2901;42.140;24.760;2023-02-12T07:18:05;100494.84;;;5.90;43.50
5753;BME280;2901;42.140;24.760;2023-02-12T07:20:30;100500.81;;;5.89;44.18
5753;BME280;2901;42.140;24.760;2023-02-12T07:22:55;100490.78;;;5.98;44.53
5753;BME280;2901;42.140;24.760;2023-02-12T07:25:21;100488.97;;;5.94;44.28
5753;BME280;2901;42.140;24.760;2023-02-12T07:27:46;100483.22;;;6.02;44.23
5753;BME280;2901;42.140;24.760;2023-02-12T07:30:12;100490.31;;;6.11;44.60
5753;BME280;2901;42.140;24.760;2023-02-12T07:32:37;100468.75;;;6.06;44.88
5753;BME280;2901;42.140;24.760;2023-02-12T07:35:02;100490.00;;;6.00;44.72
5753;BME280;2901;42.140;24.760;2023-02-12T07:37:28;100456.50;;;5.97;44.98
5753;BME280;2901;42.140;24.760;2023-02-12T07:39:53;100484.38;;;6.13;44.58
5753;BME280;2901;42.140;24.760;2023-02-12T07:42:19;100484.38;;;6.13;44.50
5753;BME280;2901;42.140;24.760;2023-02-12T07:44:44;100494.72;;;6.16;45.41
5753;BME280;2901;42.140;24.760;2023-02-12T07:47:09;100500.09;;;6.24;44.75
5753;BME280;2901;42.140;24.760;2023-02-12T07:49:35;100514.44;;;6.16;44.67
5753;BME280;2901;42.140;24.760;2023-02-12T07:52:00;100505.88;;;6.15;45.32
5753;BME280;2901;42.140;24.760;2023-02-12T07:54:26;100487.97;;;6.20;45.00
5753;BME280;2901;42.140;24.760;2023-02-12T07:56:51;100495.75;;;6.21;45.66
5753;BME280;2901;42.140;24.760;2023-02-12T07:59:17;100499.59;;;6.37;45.21
5753;BME280;2901;42.140;24.760;2023-02-12T08:01:48;100502.16;;;6.37;45.32
5753;BME280;2901;42.140;24.760;2023-02-12T08:04:16;100504.78;;;6.39;45.13
5753;BME280;2901;42.140;24.760;2023-02-12T08:06:45;100513.72;;;6.53;44.90
5753;BME280;2901;42.140;24.760;2023-02-12T08:09:14;100516.13;;;6.47;44.91
5753;BME280;2901;42.140;24.760;2023-02-12T08:11:41;100517.66;;;6.39;44.74
5753;BME280;2901;42.140;24.760;2023-02-12T08:14:07;100513.53;;;6.45;44.76
5753;BME280;2901;42.140;24.760;2023-02-12T08:16:37;100516.13;;;6.47;45.15
5753;BME280;2901;42.140;24.760;2023-02-12T08:19:03;100517.06;;;6.50;45.62
5753;BME280;2901;42.140;24.760;2023-02-12T08:21:29;100530.00;;;6.52;45.66
5753;BME280;2901;42.140;24.760;2023-02-12T08:23:58;100524.22;;;6.62;45.40
5753;BME280;2901;42.140;24.760;2023-02-12T08:26:31;100537.31;;;6.69;45.32
5753;BME280;2901;42.140;24.760;2023-02-12T08:29:02;100539.25;;;6.78;45.98
5753;BME280;2901;42.140;24.760;2023-02-12T08:31:33;100528.56;;;6.63;46.48
5753;BME280;2901;42.140;24.760;2023-02-12T08:33:59;100537.53;;;6.78;47.07
5753;BME280;2901;42.140;24.760;2023-02-12T08:36:27;100547.66;;;6.72;48.34
5753;BME280;2901;42.140;24.760;2023-02-12T08:38:55;100548.69;;;6.79;49.25
5753;BME280;2901;42.140;24.760;2023-02-12T08:41:24;100544.81;;;6.62;50.31
5753;BME280;2901;42.140;24.760;2023-02-12T08:43:52;100544.06;;;6.64;51.26
5753;BME280;2901;42.140;24.760;2023-02-12T08:46:21;100556.84;;;6.63;52.12
5753;BME280;2901;42.140;24.760;2023-02-12T08:48:47;100563.75;;;6.64;52.66
5753;BME280;2901;42.140;24.760;2023-02-12T08:51:15;100564.38;;;6.55;54.00
5753;BME280;2901;42.140;24.760;2023-02-12T08:53:42;100555.75;;;6.53;54.86
5753;BME280;2901;42.140;24.760;2023-02-12T08:56:08;100564.56;;;6.61;55.50
5753;BME280;2901;42.140;24.760;2023-02-12T08:58:35;100557.09;;;6.72;54.87
5753;BME280;2901;42.140;24.760;2023-02-12T09:01:01;100568.16;;;6.68;56.23
5753;BME280;2901;42.140;24.760;2023-02-12T09:03:27;100582.69;;;6.66;56.39
5753;BME280;2901;42.140;24.760;2023-02-12T09:05:52;100563.63;;;6.59;56.85
5753;BME280;2901;42.140;24.760;2023-02-12T09:08:18;100579.03;;;6.58;56.88
5753;BME280;2901;42.140;24.760;2023-02-12T09:10:44;100573.25;;;6.66;56.39
5753;BME280;2901;42.140;24.760;2023-02-12T09:13:11;100574.22;;;6.70;55.86
5753;BME280;2901;42.140;24.760;2023-02-12T09:15:38;100581.19;;;6.74;56.14
5753;BME280;2901;42.140;24.760;2023-02-12T09:18:03;100578.91;;;6.85;56.17
5753;BME280;2901;42.140;24.760;2023-02-12T09:20:30;100580.97;;;6.99;55.26
5753;BME280;2901;42.140;24.760;2023-02-12T09:22:57;100580.38;;;7.09;54.94
5753;BME280;2901;42.140;24.760;2023-02-12T09:25:23;100575.09;;;7.05;55.89
5753;BME280;2901;42.140;24.760;2023-02-12T09:27:48;100592.19;;;7.01;55.58
5753;BME280;2901;42.140;24.760;2023-02-12T09:30:14;100590.22;;;6.91;56.98
5753;BME280;2901;42.140;24.760;2023-02-12T09:32:39;100591.19;;;6.96;57.44
5753;BME280;2901;42.140;24.760;2023-02-12T09:35:05;100587.66;;;6.91;57.23
5753;BME280;2901;42.140;24.760;2023-02-12T09:37:31;100586.03;;;6.96;56.95
5753;BME280;2901;42.140;24.760;2023-02-12T09:39:56;100592.19;;;7.01;56.34
5753;BME280;2901;42.140;24.760;2023-02-12T09:45:19;100587.00;;;7.00;56.73
5753;BME280;2901;42.140;24.760;2023-02-12T09:52:58;100598.78;;;6.90;57.21
5753;BME280;2901;42.140;24.760;2023-02-12T09:55:28;100600.44;;;6.88;57.26
5753;BME280;2901;42.140;24.760;2023-02-12T09:57:54;100586.56;;;6.83;56.99
5753;BME280;2901;42.140;24.760;2023-02-12T10:00:25;100585.75;;;6.84;57.98
5753;BME280;2901;42.140;24.760;2023-02-12T10:02:57;100565.31;;;6.90;56.51
5753;BME280;2901;42.140;24.760;2023-02-12T10:07:58;100582.47;;;7.25;55.51
5753;BME280;2901;42.140;24.760;2023-02-12T10:10:33;100584.81;;;7.51;54.93
5753;BME280;2901;42.140;24.760;2023-02-12T10:13:07;100577.25;;;7.58;54.31
5753;BME280;2901;42.140;24.760;2023-02-12T10:26:30;100567.53;;;8.26;48.35
5753;BME280;2901;42.140;24.760;2023-02-12T10:29:04;100571.31;;;8.42;47.20
5753;BME280;2901;42.140;24.760;2023-02-12T10:31:37;100572.59;;;8.63;46.81
5753;BME280;2901;42.140;24.760;2023-02-12T10:34:25;100575.38;;;8.74;46.71
5753;BME280;2901;42.140;24.760;2023-02-12T10:36:54;100571.22;;;8.83;45.98
5753;BME280;2901;42.140;24.760;2023-02-12T10:39:34;100573.91;;;8.88;46.15
5753;BME280;2901;42.140;24.760;2023-02-12T10:42:38;100570.59;;;8.97;46.43
5753;BME280;2901;42.140;24.760;2023-02-12T10:45:08;100571.53;;;8.99;46.79
5753;BME280;2901;42.140;24.760;2023-02-12T10:47:36;100572.34;;;8.98;48.65
5753;BME280;2901;42.140;24.760;2023-02-12T10:50:12;100564.06;;;9.15;48.41
5753;BME280;2901;42.140;24.760;2023-02-12T10:52:45;100560.69;;;9.22;47.82
5753;BME280;2901;42.140;24.760;2023-02-12T10:55:32;100563.22;;;9.18;48.36
5753;BME280;2901;42.140;24.760;2023-02-12T10:57:59;100565.72;;;9.12;48.26
5753;BME280;2901;42.140;24.760;2023-02-12T11:00:29;100562.34;;;9.17;47.00
5753;BME280;2901;42.140;24.760;2023-02-12T11:03:22;100572.28;;;9.47;46.37
5753;BME280;2901;42.140;24.760;2023-02-12T11:05:47;100565.75;;;9.70;45.11
5753;BME280;2901;42.140;24.760;2023-02-12T11:08:32;100588.06;;;9.64;44.67
5753;BME280;2901;42.140;24.760;2023-02-12T11:11:30;100573.78;;;9.31;44.94
5753;BME280;2901;42.140;24.760;2023-02-12T11:14:19;100576.25;;;9.25;45.23
5753;BME280;2901;42.140;24.760;2023-02-12T11:19:26;100584.13;;;9.31;45.15
5753;BME280;2901;42.140;24.760;2023-02-12T11:22:06;100572.00;;;9.29;45.10
5753;BME280;2901;42.140;24.760;2023-02-12T11:24:35;100585.09;;;9.39;45.26
5753;BME280;2901;42.140;24.760;2023-02-12T11:29:45;100590.13;;;9.32;45.33
5753;BME280;2901;42.140;24.760;2023-02-12T11:32:17;100587.41;;;9.21;45.03
5753;BME280;2901;42.140;24.760;2023-02-12T11:34:42;100580.63;;;9.28;44.77
5753;BME280;2901;42.140;24.760;2023-02-12T11:37:18;100585.94;;;9.38;44.96
5753;BME280;2901;42.140;24.760;2023-02-12T11:39:49;100587.06;;;9.54;44.36
5753;BME280;2901;42.140;24.760;2023-02-12T11:42:17;100593.06;;;9.53;44.16
5753;BME280;2901;42.140;24.760;2023-02-12T11:44:56;100586.84;;;9.41;43.95
5753;BME280;2901;42.140;24.760;2023-02-12T11:47:31;100596.66;;;9.09;44.45
5753;BME280;2901;42.140;24.760;2023-02-12T11:52:40;100594.22;;;9.18;45.10
5753;BME280;2901;42.140;24.760;2023-02-12T11:55:20;100579.00;;;9.34;44.83
5753;BME280;2901;42.140;24.760;2023-02-12T11:58:01;100589.69;;;9.57;44.39
5753;BME280;2901;42.140;24.760;2023-02-12T12:00:38;100591.09;;;9.38;44.54
5753;BME280;2901;42.140;24.760;2023-02-12T12:08:59;100581.63;;;9.96;43.04
5753;BME280;2901;42.140;24.760;2023-02-12T12:11:37;100584.31;;;10.04;43.97
5753;BME280;2901;42.140;24.760;2023-02-12T12:14:23;100581.69;;;10.02;43.60
5753;BME280;2901;42.140;24.760;2023-02-12T12:16:54;100594.81;;;10.14;43.27
5753;BME280;2901;42.140;24.760;2023-02-12T12:25:25;100588.94;;;10.27;43.16
5753;BME280;2901;42.140;24.760;2023-02-12T12:30:54;100599.56;;;10.47;42.04
5753;BME280;2901;42.140;24.760;2023-02-12T12:33:33;100600.53;;;10.58;41.72
5753;BME280;2901;42.140;24.760;2023-02-12T12:39:01;100605.63;;;10.51;41.48
5753;BME280;2901;42.140;24.760;2023-02-12T13:12:25;100640.41;;;10.06;43.20
5753;BME280;2901;42.140;24.760;2023-02-12T13:26:33;100653.38;;;10.09;43.81
5753;BME280;2901;42.140;24.760;2023-02-12T13:29:47;100658.53;;;10.06;43.54
5753;BME280;2901;42.140;24.760;2023-02-12T13:34:49;100659.97;;;9.87;43.39
5753;BME280;2901;42.140;24.760;2023-02-12T13:37:30;100665.16;;;9.87;43.26
5753;BME280;2901;42.140;24.760;2023-02-12T13:40:02;100661.75;;;9.90;43.57
5753;BME280;2901;42.140;24.760;2023-02-12T13:47:38;100670.28;;;9.84;44.24
5753;BME280;2901;42.140;24.760;2023-02-12T13:53:11;100659.56;;;10.16;43.65
5753;BME280;2901;42.140;24.760;2023-02-12T13:56:06;100675.00;;;10.13;43.17
5753;BME280;2901;42.140;24.760;2023-02-12T13:58:37;100679.19;;;10.03;44.05
5753;BME280;2901;42.140;24.760;2023-02-12T14:01:09;100679.16;;;10.02;43.56
5753;BME280;2901;42.140;24.760;2023-02-12T14:03:36;100678.19;;;9.95;43.90
5753;BME280;2901;42.140;24.760;2023-02-12T14:06:19;100686.00;;;9.97;44.12
5753;BME280;2901;42.140;24.760;2023-02-12T14:09:06;100691.13;;;9.95;44.21
5753;BME280;2901;42.140;24.760;2023-02-12T14:11:32;100694.63;;;9.97;44.52
5753;BME280;2901;42.140;24.760;2023-02-12T14:14:00;100698.00;;;9.95;43.84
5753;BME280;2901;42.140;24.760;2023-02-12T14:22:01;100712.44;;;9.77;45.47
5753;BME280;2901;42.140;24.760;2023-02-12T14:27:05;100711.28;;;9.60;46.83
5753;BME280;2901;42.140;24.760;2023-02-12T14:35:38;100747.69;;;9.24;49.61
5753;BME280;2901;42.140;24.760;2023-02-12T14:45:48;100757.34;;;8.91;51.11
5753;BME280;2901;42.140;24.760;2023-02-12T14:48:37;100765.91;;;8.89;51.54
5753;BME280;2901;42.140;24.760;2023-02-12T14:51:03;100776.91;;;8.80;51.70
5753;BME280;2901;42.140;24.760;2023-02-12T14:53:34;100769.81;;;8.70;52.22
5753;BME280;2901;42.140;24.760;2023-02-12T14:56:02;100786.09;;;8.66;52.82
5753;BME280;2901;42.140;24.760;2023-02-12T14:58:28;100786.00;;;8.61;52.48
5753;BME280;2901;42.140;24.760;2023-02-12T15:00:59;100792.66;;;8.52;52.78
5753;BME280;2901;42.140;24.760;2023-02-12T15:03:31;100803.53;;;8.39;53.99
5753;BME280;2901;42.140;24.760;2023-02-12T15:09:10;100817.09;;;8.30;54.07
5753;BME280;2901;42.140;24.760;2023-02-12T15:11:47;100817.84;;;8.26;54.92
5753;BME280;2901;42.140;24.760;2023-02-12T15:22:21;100835.91;;;8.26;55.29
5753;BME280;2901;42.140;24.760;2023-02-12T15:24:47;100833.25;;;8.23;55.35
5753;BME280;2901;42.140;24.760;2023-02-12T15:27:14;100844.66;;;8.31;54.65
5753;BME280;2901;42.140;24.760;2023-02-12T15:29:51;100842.72;;;8.24;55.90
5753;BME280;2901;42.140;24.760;2023-02-12T15:32:27;100862.47;;;8.23;55.49
5753;BME280;2901;42.140;24.760;2023-02-12T15:34:54;100855.53;;;8.21;55.75
5753;BME280;2901;42.140;24.760;2023-02-12T15:37:28;100862.53;;;8.25;55.20
5753;BME280;2901;42.140;24.760;2023-02-12T15:39:59;100875.38;;;8.23;55.93
5753;BME280;2901;42.140;24.760;2023-02-12T15:42:35;100881.41;;;8.22;55.64
5753;BME280;2901;42.140;24.760;2023-02-12T15:47:39;100886.44;;;8.18;56.60
5753;BME280;2901;42.140;24.760;2023-02-12T15:50:12;100892.38;;;8.15;56.33
5753;BME280;2901;42.140;24.760;2023-02-12T15:52:40;100893.19;;;8.13;57.09
5753;BME280;2901;42.140;24.760;2023-02-12T15:55:14;100905.97;;;8.08;57.30
5753;BME280;2901;42.140;24.760;2023-02-12T15:57:41;100919.75;;;8.09;57.39
5753;BME280;2901;42.140;24.760;2023-02-12T16:00:09;100917.09;;;8.06;57.25
5753;BME280;2901;42.140;24.760;2023-02-12T16:02:35;100925.63;;;8.03;58.04
5753;BME280;2901;42.140;24.760;2023-02-12T16:05:03;100934.97;;;8.00;57.93
5753;BME280;2901;42.140;24.760;2023-02-12T16:07:33;100923.66;;;7.95;58.12
5753;BME280;2901;42.140;24.760;2023-02-12T16:10:00;100932.19;;;7.92;58.92
5753;BME280;2901;42.140;24.760;2023-02-12T16:12:30;100943.31;;;7.91;58.32
5753;BME280;2901;42.140;24.760;2023-02-12T16:14:56;100952.81;;;7.92;58.74
5753;BME280;2901;42.140;24.760;2023-02-12T16:19:58;100955.22;;;7.86;59.09